Time;durP1;ratioP1;P1;durP2;ratioP2;P2;SDS_P1;SDS_P2;PMS_P1;PMS_P2;Temp;Humidity;BMP_temperature;BMP_pressure;BME280_temperature;BME280_humidity;BME280_pressure;Samples;Min_cycle;Max_cycle;Signal;HPM_P1;HPM_P2
2022/05/26 00:01:59;;;;;;;38.80;8.07;;;13.50;92.20;;;;;;4801343;29;20098;-73
2022/05/26 00:04:26;;;;;;;42.30;9.20;;;13.40;92.00;;;;;;4801042;29;20138;-73
2022/05/26 00:06:52;;;;;;;33.47;7.47;;;13.40;92.10;;;;;;4818648;29;20299;-73
2022/05/26 00:09:18;;;;;;;41.83;9.10;;;13.30;92.10;;;;;;4819279;29;20359;-73
2022/05/26 00:11:44;;;;;;;43.03;8.87;;;13.20;92.10;;;;;;4823232;29;20038;-73
2022/05/26 00:14:11;;;;;;;36.83;8.10;;;13.20;92.50;;;;;;4805960;29;20608;-73
2022/05/26 00:16:41;;;;;;;41.00;8.80;;;13.10;92.60;;;;;;4823183;29;20579;-73
2022/05/26 00:19:08;;;;;;;39.67;9.13;;;13.10;92.80;;;;;;4822807;29;20295;-73
2022/05/26 00:21:33;;;;;;;38.90;8.50;;;13.00;92.90;;;;;;4821796;29;20311;-73
2022/05/26 00:23:59;;;;;;;34.23;8.30;;;13.00;92.90;;;;;;4827591;29;20357;-73
2022/05/26 00:26:25;;;;;;;38.87;8.77;;;13.00;93.20;;;;;;4823013;29;20052;-73
2022/05/26 00:28:51;;;;;;;44.60;8.70;;;12.90;93.20;;;;;;4821527;29;20050;-73
2022/05/26 00:31:17;;;;;;;38.17;8.37;;;12.90;93.70;;;;;;4807700;29;20153;-73
2022/05/26 00:33:43;;;;;;;43.40;8.67;;;12.90;93.70;;;;;;4835200;29;20859;-73
2022/05/26 00:36:11;;;;;;;36.87;7.63;;;12.90;93.70;;;;;;4823056;29;20050;-72
2022/05/26 00:38:41;;;;;;;41.57;8.63;;;13.00;94.00;;;;;;4804344;29;20049;-73
2022/05/26 00:41:12;;;;;;;39.33;8.10;;;13.00;94.00;;;;;;4851564;29;20299;-73
2022/05/26 00:43:44;;;;;;;36.87;7.73;;;13.00;94.10;;;;;;4803982;29;20307;-73
2022/05/26 00:46:26;;;;;;;40.50;8.43;;;13.00;94.10;;;;;;4821602;29;20295;-73
2022/05/26 00:48:56;;;;;;;41.63;8.60;;;13.10;94.10;;;;;;4806380;29;20328;-73
2022/05/26 00:51:27;;;;;;;43.90;8.33;;;13.10;94.10;;;;;;4822422;29;20661;-73
2022/05/26 00:53:59;;;;;;;47.13;8.93;;;13.10;94.20;;;;;;4816702;29;20307;-73
2022/05/26 00:56:32;;;;;;;42.67;8.73;;;13.10;94.20;;;;;;4818985;29;20319;-73
2022/05/26 00:59:07;;;;;;;42.47;8.43;;;13.10;94.10;;;;;;4823265;29;20754;-73
2022/05/26 01:01:33;;;;;;;39.17;8.17;;;13.10;94.20;;;;;;4820731;29;20651;-73
2022/05/26 01:04:05;;;;;;;36.87;8.17;;;13.10;94.20;;;;;;4821666;29;20343;-73
2022/05/26 01:06:42;;;;;;;45.37;8.90;;;13.10;94.10;;;;;;4821088;29;20299;-73
2022/05/26 01:09:08;;;;;;;42.73;8.57;;;13.10;94.00;;;;;;4823879;29;20295;-73
2022/05/26 01:11:40;;;;;;;39.53;8.27;;;13.10;93.90;;;;;;4821154;29;20388;-73
2022/05/26 01:14:23;;;;;;;33.87;7.63;;;13.10;94.00;;;;;;4847132;29;20143;-73
2022/05/26 01:17:26;;;;;;;35.43;7.83;;;13.10;93.90;;;;;;4849198;29;20318;-73
2022/05/26 01:19:54;;;;;;;36.00;7.80;;;13.10;93.90;;;;;;4847851;29;20293;-73
2022/05/26 01:22:38;;;;;;;30.23;7.23;;;13.10;93.80;;;;;;4845968;29;20391;-73
2022/05/26 01:25:42;;;;;;;38.73;8.50;;;13.10;93.80;;;;;;4832306;29;20288;-73
2022/05/26 01:28:35;;;;;;;29.93;6.70;;;13.10;93.70;;;;;;4820079;29;20295;-73
2022/05/26 01:31:06;;;;;;;37.80;7.83;;;13.10;93.70;;;;;;4829625;29;20300;-73
2022/05/26 01:33:52;;;;;;;29.67;6.50;;;13.10;93.40;;;;;;4813386;29;20314;-73
2022/05/26 01:36:41;;;;;;;33.40;7.00;;;13.10;93.30;;;;;;4813568;29;20650;-73
2022/05/26 01:39:25;;;;;;;28.37;5.87;;;13.10;92.90;;;;;;4823146;29;20372;-73
2022/05/26 01:42:08;;;;;;;30.70;5.97;;;13.10;92.80;;;;;;4828459;29;20346;-73
2022/05/26 01:44:49;;;;;;;31.77;7.00;;;13.00;92.60;;;;;;4804143;29;20291;-73
2022/05/26 01:47:29;;;;;;;23.93;5.27;;;13.00;92.40;;;;;;4847552;29;20822;-73
2022/05/26 01:50:21;;;;;;;25.03;6.23;;;13.10;92.00;;;;;;4819948;29;20291;-73
2022/05/26 01:53:10;;;;;;;24.30;5.37;;;13.10;91.70;;;;;;4797681;29;20375;-73
2022/05/26 01:55:50;;;;;;;22.87;5.27;;;13.10;91.00;;;;;;4848745;29;20364;-73
2022/05/26 01:58:18;;;;;;;18.90;4.60;;;13.10;90.60;;;;;;4816998;29;20333;-73
2022/05/26 02:00:45;;;;;;;19.80;4.30;;;13.10;90.30;;;;;;4849828;29;20598;-73
2022/05/26 02:03:22;;;;;;;12.13;3.20;;;13.10;89.90;;;;;;4819417;29;20641;-73
2022/05/26 02:05:57;;;;;;;13.97;3.23;;;13.10;89.60;;;;;;4840937;29;20453;-73
2022/05/26 02:08:57;;;;;;;11.65;3.33;;;13.00;88.80;;;;;;4805621;29;20305;-73
2022/05/26 02:11:24;;;;;;;12.23;3.17;;;13.00;89.00;;;;;;4820590;29;20142;-73
2022/05/26 02:14:29;;;;;;;17.23;3.20;;;13.00;88.00;;;;;;4803054;29;20360;-73
2022/05/26 02:17:05;;;;;;;17.27;2.90;;;12.90;87.70;;;;;;4794131;29;20817;-73
2022/05/26 02:19:46;;;;;;;13.33;3.17;;;12.90;87.30;;;;;;4831875;29;20380;-73
2022/05/26 02:22:24;;;;;;;12.93;2.63;;;12.80;87.70;;;;;;4830086;29;20637;-73
2022/05/26 02:24:52;;;;;;;11.23;2.50;;;12.80;87.00;;;;;;4805275;29;20296;-73
2022/05/26 02:27:18;;;;;;;10.83;2.60;;;12.70;86.80;;;;;;4832051;29;20287;-73
2022/05/26 02:29:52;;;;;;;9.20;2.60;;;12.70;86.60;;;;;;4843108;29;20368;-73
2022/05/26 02:32:29;;;;;;;9.77;2.58;;;12.60;86.30;;;;;;4803113;29;20166;-73
2022/05/26 02:34:57;;;;;;;10.80;1.93;;;12.60;86.30;;;;;;4801685;29;20500;-73
2022/05/26 02:37:25;;;;;;;8.00;1.63;;;12.60;86.20;;;;;;4804397;29;20318;-73
2022/05/26 02:39:51;;;;;;;11.23;1.83;;;12.50;86.30;;;;;;4820283;29;20295;-73
2022/05/26 02:42:18;;;;;;;8.97;2.03;;;12.50;86.40;;;;;;4833434;29;20298;-73
2022/05/26 02:44:45;;;;;;;10.30;2.20;;;12.50;86.60;;;;;;4847968;29;20046;-73
2022/05/26 02:47:24;;;;;;;9.43;1.90;;;12.40;86.20;;;;;;4810930;29;20731;-73
2022/05/26 02:50:15;;;;;;;10.67;1.80;;;12.40;86.30;;;;;;4820316;29;20360;-72
2022/05/26 02:52:47;;;;;;;10.33;1.80;;;12.30;86.30;;;;;;4838559;29;20352;-72
2022/05/26 02:55:37;;;;;;;10.40;2.00;;;12.20;86.40;;;;;;4823667;29;20741;-72
2022/05/26 02:58:30;;;;;;;9.00;2.43;;;12.10;86.60;;;;;;4809815;29;20300;-73
2022/05/26 03:01:19;;;;;;;8.47;1.70;;;12.00;86.50;;;;;;4817143;29;20310;-73
2022/05/26 03:04:08;;;;;;;9.37;1.87;;;11.90;86.40;;;;;;4803777;29;20854;-73
2022/05/26 03:06:39;;;;;;;7.67;1.67;;;11.80;86.40;;;;;;4818434;29;20299;-73
2022/05/26 03:09:07;;;;;;;8.10;1.80;;;11.80;86.50;;;;;;4829008;29;20288;-73
2022/05/26 03:11:47;;;;;;;6.60;1.40;;;11.70;86.60;;;;;;4804143;29;20683;-72
2022/05/26 03:14:14;;;;;;;7.47;1.53;;;11.70;86.70;;;;;;4810951;29;20300;-72
2022/05/26 03:16:41;;;;;;;9.93;1.80;;;11.60;86.70;;;;;;4830113;29;20318;-72
2022/05/26 03:19:07;;;;;;;10.57;1.87;;;11.50;86.80;;;;;;4817038;29;20796;-72
2022/05/26 03:21:33;;;;;;;11.80;2.20;;;11.50;86.90;;;;;;4802373;29;20308;-72
2022/05/26 03:23:59;;;;;;;8.93;2.13;;;11.40;86.90;;;;;;4814434;29;20296;-72
2022/05/26 03:26:24;;;;;;;9.73;1.40;;;11.40;87.10;;;;;;4832688;29;20098;-72
2022/05/26 03:28:50;;;;;;;7.27;1.43;;;11.30;87.20;;;;;;4841180;29;20527;-72
2022/05/26 03:31:16;;;;;;;13.77;2.03;;;11.30;87.40;;;;;;4803210;29;20050;-72
2022/05/26 03:41:56;;;;;;;8.50;1.57;;;11.30;87.50;;;;;;4848075;29;20383;-73
2022/05/26 03:44:22;;;;;;;9.47;1.27;;;11.40;87.60;;;;;;4803653;29;20303;-73
2022/05/26 03:46:49;;;;;;;6.80;1.40;;;11.40;87.40;;;;;;4832950;29;20856;-73
2022/05/26 03:49:15;;;;;;;9.73;1.70;;;11.40;87.40;;;;;;4809969;29;20328;-73
2022/05/26 03:51:40;;;;;;;9.00;1.10;;;11.40;87.20;;;;;;4817600;29;20717;-73
2022/05/26 03:54:06;;;;;;;9.27;1.93;;;11.50;87.40;;;;;;4817491;29;20439;-73
2022/05/26 03:56:32;;;;;;;8.43;1.10;;;11.50;86.90;;;;;;4802098;29;20058;-73
2022/05/26 03:58:57;;;;;;;7.47;1.30;;;11.50;87.00;;;;;;4803785;29;20050;-73
2022/05/26 04:01:23;;;;;;;10.50;1.30;;;11.60;86.60;;;;;;4815263;29;20500;-73
2022/05/26 04:03:49;;;;;;;8.33;1.40;;;11.60;86.70;;;;;;4818204;29;20038;-73
2022/05/26 04:06:16;;;;;;;7.87;1.10;;;11.70;86.60;;;;;;4799078;29;20043;-73
2022/05/26 04:08:41;;;;;;;5.27;1.30;;;11.70;85.80;;;;;;4823357;29;20648;-72
2022/05/26 04:11:07;;;;;;;7.13;1.00;;;11.80;85.90;;;;;;4803389;29;20287;-72
2022/05/26 04:13:33;;;;;;;7.23;0.97;;;11.80;85.60;;;;;;4815373;29;20411;-72
2022/05/26 04:15:59;;;;;;;7.87;1.43;;;11.80;85.70;;;;;;4817445;29;20151;-73
2022/05/26 04:18:25;;;;;;;6.27;1.10;;;11.80;85.50;;;;;;4804392;29;20299;-73
2022/05/26 04:20:51;;;;;;;6.63;1.07;;;11.80;85.40;;;;;;4804394;29;20050;-73
2022/05/26 04:23:17;;;;;;;6.00;0.90;;;11.80;85.20;;;;;;4798994;29;20115;-73
2022/05/26 04:25:42;;;;;;;7.37;0.87;;;11.80;85.40;;;;;;4818053;29;20058;-72
2022/05/26 04:28:08;;;;;;;8.00;1.43;;;11.80;85.10;;;;;;4832120;29;20053;-72
2022/05/26 04:30:34;;;;;;;6.90;1.00;;;11.80;85.20;;;;;;4818384;29;20047;-72
2022/05/26 04:33:00;;;;;;;5.80;1.10;;;11.80;85.00;;;;;;4820202;29;20042;-72
2022/05/26 04:35:26;;;;;;;7.13;0.70;;;11.80;85.10;;;;;;4817020;29;20065;-72
2022/05/26 04:37:51;;;;;;;6.77;1.00;;;11.80;84.90;;;;;;4844328;29;20054;-72
2022/05/26 04:40:17;;;;;;;13.17;1.83;;;11.90;84.90;;;;;;4817419;29;20053;-72
2022/05/26 04:42:43;;;;;;;6.40;0.90;;;12.00;84.50;;;;;;4839912;29;20042;-72
2022/05/26 04:45:11;;;;;;;9.83;1.00;;;12.00;84.40;;;;;;4803783;29;20074;-72
2022/05/26 04:47:37;;;;;;;6.50;0.77;;;12.10;84.00;;;;;;4820353;29;20062;-72
2022/05/26 04:50:04;;;;;;;6.20;1.13;;;12.20;83.60;;;;;;4818566;29;20303;-72
2022/05/26 04:52:29;;;;;;;7.57;1.70;;;12.40;83.10;;;;;;4802715;29;20054;-72
2022/05/26 04:54:55;;;;;;;7.67;0.80;;;12.60;82.40;;;;;;4816393;29;20295;-72
2022/05/26 04:57:23;;;;;;;3.80;0.80;;;12.90;82.60;;;;;;4833619;29;20046;-72
2022/05/26 04:59:50;;;;;;;6.63;1.07;;;13.20;81.00;;;;;;4843714;29;20141;-72
2022/05/26 05:02:18;;;;;;;4.77;0.67;;;13.50;80.80;;;;;;4818582;29;20295;-72
2022/05/26 05:04:46;;;;;;;4.63;0.80;;;13.90;80.80;;;;;;4804544;29;20291;-72
2022/05/26 05:07:12;;;;;;;6.23;1.30;;;14.70;80.10;;;;;;4821225;29;20334;-73
2022/05/26 05:09:39;;;;;;;5.50;1.00;;;15.70;77.70;;;;;;4820412;29;20327;-73
2022/05/26 05:12:06;;;;;;;5.80;1.00;;;16.50;74.30;;;;;;4837012;29;20054;-73
2022/05/26 05:14:53;;;;;;;6.13;0.70;;;17.30;72.90;;;;;;4802695;29;20344;-73
2022/05/26 05:17:21;;;;;;;8.37;0.90;;;17.80;69.30;;;;;;4801845;29;20812;-73
2022/05/26 05:19:48;;;;;;;6.33;0.90;;;18.30;68.70;;;;;;4820379;29;20745;-73
2022/05/26 05:22:25;;;;;;;8.80;0.80;;;18.70;67.20;;;;;;4818944;29;20313;-73
2022/05/26 05:24:53;;;;;;;7.10;0.73;;;19.00;65.30;;;;;;4794373;29;20299;-73
2022/05/26 05:27:31;;;;;;;6.67;1.07;;;19.10;64.30;;;;;;4803950;29;20952;-73
2022/05/26 05:30:01;;;;;;;3.83;0.60;;;19.10;63.40;;;;;;4805518;29;20291;-73
2022/05/26 05:33:05;;;;;;;9.30;2.10;;;19.20;63.50;;;;;;4815866;29;20291;-73
2022/05/26 05:35:42;;;;;;;6.60;0.63;;;19.40;59.90;;;;;;4823428;29;20319;-73
2022/05/26 05:38:08;;;;;;;5.73;0.73;;;19.60;62.60;;;;;;4800481;29;20308;-73
2022/05/26 05:40:35;;;;;;;5.67;0.60;;;19.50;61.00;;;;;;4813958;29;20357;-73
2022/05/26 05:43:01;;;;;;;5.23;0.60;;;19.50;61.40;;;;;;4827565;29;20413;-73
2022/05/26 05:45:27;;;;;;;7.20;0.80;;;19.60;61.60;;;;;;4845710;29;20853;-73
2022/05/26 05:47:52;;;;;;;6.23;0.67;;;19.40;60.70;;;;;;4828847;29;20296;-73
2022/05/26 05:50:18;;;;;;;3.90;0.37;;;19.30;60.30;;;;;;4814997;29;20107;-73
2022/05/26 05:52:44;;;;;;;6.80;1.10;;;19.50;60.90;;;;;;4845523;29;20134;-73
2022/05/26 05:55:10;;;;;;;4.10;0.50;;;19.60;59.80;;;;;;4845140;29;20133;-73
2022/05/26 05:57:36;;;;;;;6.40;0.90;;;19.10;60.80;;;;;;4819679;29;20046;-73
2022/05/26 06:00:02;;;;;;;5.63;0.60;;;18.30;63.10;;;;;;4801262;29;20136;-73
2022/05/26 06:02:28;;;;;;;5.07;1.00;;;17.40;64.80;;;;;;4821535;29;20046;-73
2022/05/26 06:04:54;;;;;;;7.13;0.90;;;16.70;66.30;;;;;;4803692;29;20795;-73
2022/05/26 06:07:21;;;;;;;6.57;0.93;;;16.60;68.50;;;;;;4795911;29;20551;-73
2022/05/26 06:09:48;;;;;;;5.27;0.50;;;17.10;68.80;;;;;;4816695;29;20061;-73
2022/05/26 06:12:14;;;;;;;5.97;0.97;;;17.80;67.20;;;;;;4801609;29;20292;-73
2022/05/26 06:14:42;;;;;;;4.10;0.50;;;17.80;65.30;;;;;;4832494;29;20355;-73
2022/05/26 06:17:09;;;;;;;4.23;0.70;;;17.40;65.50;;;;;;4819042;29;20326;-73
2022/05/26 06:19:36;;;;;;;3.73;0.47;;;16.90;66.50;;;;;;4818141;29;20298;-73
2022/05/26 06:22:07;;;;;;;4.67;0.80;;;16.50;66.70;;;;;;4818392;29;20537;-73
2022/05/26 06:24:32;;;;;;;5.70;0.73;;;16.30;68.10;;;;;;4795944;29;20383;-73
2022/05/26 06:26:58;;;;;;;6.30;0.67;;;16.10;68.50;;;;;;4816377;29;20300;-73
2022/05/26 06:37:38;;;;;;;4.77;0.87;;;15.90;70.80;;;;;;4826083;29;20399;-73
2022/05/26 06:40:06;;;;;;;7.70;1.00;;;16.00;70.30;;;;;;4819783;29;20356;-73
2022/05/26 06:42:32;;;;;;;14.83;5.03;;;16.20;69.90;;;;;;4803878;29;20302;-73
2022/05/26 06:44:57;;;;;;;9.40;1.20;;;16.30;69.40;;;;;;4819110;29;20295;-73
2022/05/26 06:47:23;;;;;;;9.33;0.90;;;16.30;68.30;;;;;;4805665;29;20072;-72
2022/05/26 06:49:50;;;;;;;5.17;1.10;;;16.20;68.50;;;;;;4804549;29;20368;-72
2022/05/26 06:52:18;;;;;;;4.40;0.77;;;16.20;68.70;;;;;;4816830;29;20125;-72
2022/05/26 06:54:45;;;;;;;6.17;0.83;;;16.10;67.80;;;;;;4817084;29;20826;-72
2022/05/26 06:57:12;;;;;;;5.27;0.90;;;16.10;68.60;;;;;;4818641;29;20884;-72
2022/05/26 06:59:39;;;;;;;4.30;0.60;;;16.00;68.90;;;;;;4798083;29;20291;-72
2022/05/26 07:02:08;;;;;;;9.23;3.30;;;16.00;69.30;;;;;;4792382;29;20903;-73
2022/05/26 07:04:34;;;;;;;5.67;0.77;;;15.90;67.90;;;;;;4798550;29;20316;-73
2022/05/26 07:07:01;;;;;;;8.33;0.70;;;15.90;67.60;;;;;;4846686;29;20312;-73
2022/05/26 07:09:27;;;;;;;5.30;0.60;;;15.90;68.00;;;;;;4817956;29;20295;-72
2022/05/26 07:11:54;;;;;;;7.13;0.90;;;15.80;68.50;;;;;;4819856;29;20793;-72
2022/05/26 07:14:20;;;;;;;5.17;0.80;;;15.90;68.80;;;;;;4829649;29;20300;-72
2022/05/26 07:16:46;;;;;;;8.03;1.00;;;15.90;68.50;;;;;;4830543;29;20311;-72
2022/05/26 07:19:13;;;;;;;6.30;1.00;;;16.00;68.80;;;;;;4817188;29;20713;-72
2022/05/26 07:21:40;;;;;;;6.30;0.50;;;16.10;69.20;;;;;;4820401;29;20789;-72
2022/05/26 07:24:06;;;;;;;4.40;0.93;;;16.20;68.30;;;;;;4829249;29;20355;-72
2022/05/26 07:26:32;;;;;;;6.50;1.10;;;16.30;67.50;;;;;;4819135;29;21149;-72
2022/05/26 07:28:59;;;;;;;4.27;0.67;;;16.30;68.00;;;;;;4800812;29;20291;-73
2022/05/26 07:31:24;;;;;;;5.37;0.80;;;16.40;67.50;;;;;;4831758;29;20480;-72
2022/05/26 07:33:50;;;;;;;9.80;0.83;;;16.70;67.70;;;;;;4800894;29;20307;-72
2022/05/26 07:41:48;;;;;;;5.73;0.70;;;17.00;64.30;;;;;;4819797;29;20500;-72
2022/05/26 07:44:14;;;;;;;6.33;0.90;;;17.10;64.70;;;;;;4819175;29;20773;-72
2022/05/26 07:46:40;;;;;;;6.30;0.90;;;17.20;64.60;;;;;;4831058;29;20291;-72
2022/05/26 07:49:06;;;;;;;8.07;0.70;;;17.30;65.30;;;;;;4802617;29;20151;-72
2022/05/26 07:51:31;;;;;;;5.73;0.77;;;17.50;65.50;;;;;;4817746;29;20054;-72
2022/05/26 07:54:00;;;;;;;4.83;0.63;;;17.70;63.70;;;;;;4845985;29;20151;-72
2022/05/26 07:56:32;;;;;;;6.37;0.70;;;17.70;63.20;;;;;;4832279;29;20528;-72
2022/05/26 07:58:57;;;;;;;4.70;0.87;;;17.80;62.80;;;;;;4818561;29;20623;-72
2022/05/26 08:01:23;;;;;;;6.30;1.20;;;17.70;62.50;;;;;;4803681;29;20306;-72
2022/05/26 08:03:53;;;;;;;4.97;0.70;;;17.70;63.00;;;;;;4830707;29;20119;-73
2022/05/26 08:06:19;;;;;;;5.80;0.87;;;17.80;61.60;;;;;;4800747;29;20054;-72
2022/05/26 08:08:45;;;;;;;5.47;0.70;;;18.00;62.20;;;;;;4816858;29;20773;-72
2022/05/26 08:11:11;;;;;;;6.13;0.60;;;18.10;61.70;;;;;;4799867;29;20307;-73
2022/05/26 08:13:36;;;;;;;2.73;0.60;;;18.00;60.50;;;;;;4848848;29;20116;-73
2022/05/26 08:16:05;;;;;;;4.57;0.90;;;17.90;59.00;;;;;;4827368;29;20050;-73
2022/05/26 08:18:31;;;;;;;3.87;0.40;;;17.80;58.40;;;;;;4817344;29;20077;-73
2022/05/26 08:21:08;;;;;;;8.90;0.67;;;17.90;60.20;;;;;;4816659;29;20291;-73
2022/05/26 08:23:34;;;;;;;5.03;0.50;;;18.10;60.70;;;;;;4815466;29;20363;-73
2022/05/26 08:26:00;;;;;;;3.23;0.40;;;18.20;59.00;;;;;;4801310;29;20291;-73
2022/05/26 08:28:26;;;;;;;3.03;0.53;;;18.40;59.40;;;;;;4799435;29;20669;-73
2022/05/26 08:30:51;;;;;;;3.67;0.47;;;18.50;58.20;;;;;;4849889;29;20614;-73
2022/05/26 08:33:17;;;;;;;5.37;0.60;;;18.50;58.50;;;;;;4866485;29;20316;-73
2022/05/26 08:35:43;;;;;;;5.30;0.80;;;18.60;58.40;;;;;;4828982;29;20058;-73
2022/05/26 08:38:09;;;;;;;8.33;2.43;;;18.60;58.20;;;;;;4833841;29;20054;-73
2022/05/26 08:40:51;;;;;;;6.57;0.70;;;18.60;58.00;;;;;;4809737;29;20042;-73
2022/05/26 08:44:03;;;;;;;6.87;0.50;;;18.50;57.80;;;;;;4821468;29;20570;-73
2022/05/26 08:46:48;;;;;;;6.77;0.73;;;18.50;56.10;;;;;;4810434;29;20296;-73
2022/05/26 08:49:30;;;;;;;3.17;0.60;;;18.40;57.90;;;;;;4841537;29;20348;-73
2022/05/26 08:52:32;;;;;;;3.70;0.80;;;18.40;57.40;;;;;;4836089;29;20050;-72
2022/05/26 08:55:17;;;;;;;3.87;0.70;;;18.10;56.80;;;;;;4805040;29;20806;-72
2022/05/26 08:57:52;;;;;;;5.95;0.50;;;18.00;57.70;;;;;;4817068;29;20308;-72
2022/05/26 09:00:21;;;;;;;5.17;0.60;;;17.80;57.20;;;;;;4847614;29;20499;-73
2022/05/26 09:02:53;;;;;;;4.07;0.50;;;17.70;58.20;;;;;;4803046;29;20301;-72
2022/05/26 09:05:20;;;;;;;2.97;0.43;;;17.80;58.70;;;;;;4814561;29;20291;-73
2022/05/26 09:13:39;;;;;;;4.03;0.63;;;18.00;59.50;;;;;;4852904;29;20310;-72
2022/05/26 09:16:06;;;;;;;3.63;0.40;;;18.10;59.60;;;;;;4818709;29;20291;-73
2022/05/26 09:18:32;;;;;;;3.63;0.77;;;18.20;58.90;;;;;;4794697;29;20310;-72
2022/05/26 09:21:17;;;;;;;7.03;0.93;;;18.20;59.10;;;;;;4828611;29;20776;-72
2022/05/26 09:23:46;;;;;;;3.80;0.40;;;18.40;58.00;;;;;;4849878;29;20833;-72
2022/05/26 09:26:17;;;;;;;3.73;0.40;;;18.60;58.30;;;;;;4843666;29;20055;-72
2022/05/26 09:28:46;;;;;;;3.87;0.67;;;18.70;58.20;;;;;;4849952;29;20279;-72
2022/05/26 09:31:35;;;;;;;6.20;0.97;;;18.80;58.00;;;;;;4836308;29;20696;-72
2022/05/26 09:34:07;;;;;;;5.90;0.70;;;18.90;59.40;;;;;;4815373;29;20319;-73
2022/05/26 09:36:36;;;;;;;6.03;0.70;;;18.90;59.30;;;;;;4827633;29;20326;-73
2022/05/26 09:39:04;;;;;;;7.30;0.97;;;19.10;59.60;;;;;;4817492;29;20857;-73
2022/05/26 09:41:37;;;;;;;4.80;1.67;;;19.00;58.20;;;;;;4819463;29;20911;-73
2022/05/26 09:44:03;;;;;;;4.10;0.50;;;18.90;57.90;;;;;;4851972;29;20056;-72
2022/05/26 09:46:29;;;;;;;4.70;0.60;;;18.70;58.50;;;;;;4837688;29;20411;-73
2022/05/26 09:49:00;;;;;;;6.23;1.03;;;18.90;58.90;;;;;;4811802;29;20049;-72
2022/05/26 09:51:27;;;;;;;7.00;0.60;;;19.10;59.10;;;;;;4828417;29;20292;-72
2022/05/26 09:53:55;;;;;;;6.53;1.10;;;19.10;58.20;;;;;;4820125;29;20099;-73
2022/05/26 09:56:37;;;;;;;4.57;0.70;;;19.30;59.10;;;;;;4854994;29;20069;-73
2022/05/26 09:59:26;;;;;;;9.50;1.37;;;19.20;58.20;;;;;;4798867;29;20047;-73
2022/05/26 10:02:18;;;;;;;6.30;1.07;;;19.40;57.00;;;;;;4814538;29;21095;-73
2022/05/26 10:04:44;;;;;;;5.33;1.20;;;19.40;58.90;;;;;;4800863;29;20588;-73
2022/05/26 10:07:34;;;;;;;5.83;1.13;;;19.40;59.60;;;;;;4827257;29;20145;-73
2022/05/26 10:10:24;;;;;;;6.13;1.20;;;19.60;59.20;;;;;;4853496;29;20049;-73
2022/05/26 10:13:05;;;;;;;3.97;0.90;;;19.70;58.30;;;;;;4835360;29;20145;-73
2022/05/26 10:15:39;;;;;;;8.83;0.80;;;19.70;57.40;;;;;;4820253;29;20460;-73
2022/05/26 10:18:36;;;;;;;5.57;0.70;;;19.60;58.60;;;;;;4826837;29;20052;-73
2022/05/26 10:21:23;;;;;;;9.03;1.00;;;19.60;59.40;;;;;;4840986;29;20053;-73
2022/05/26 10:24:09;;;;;;;6.70;1.23;;;19.70;59.10;;;;;;4832284;29;20045;-73
2022/05/26 10:26:49;;;;;;;8.20;1.33;;;19.60;59.20;;;;;;4833700;29;20049;-73
2022/05/26 10:29:56;;;;;;;7.03;1.10;;;19.50;60.20;;;;;;4823186;29;20039;-73
2022/05/26 10:32:44;;;;;;;5.87;0.93;;;19.60;60.50;;;;;;4840130;29;20058;-73
2022/05/26 10:35:22;;;;;;;5.87;0.90;;;19.50;59.80;;;;;;4855890;29;20535;-73
2022/05/26 10:37:53;;;;;;;4.57;1.20;;;19.50;59.10;;;;;;4801347;29;20046;-73
2022/05/26 10:40:28;;;;;;;7.10;1.30;;;19.40;59.00;;;;;;4834787;29;20527;-73
2022/05/26 10:43:06;;;;;;;4.28;1.00;;;19.20;59.90;;;;;;4839812;29;20417;-73
2022/05/26 10:45:37;;;;;;;6.57;1.30;;;19.00;60.50;;;;;;4829494;29;20042;-73
2022/05/26 10:48:25;;;;;;;6.73;1.20;;;19.00;60.30;;;;;;4815352;29;20500;-73
2022/05/26 10:50:54;;;;;;;8.40;1.37;;;18.90;60.20;;;;;;4819317;29;20046;-73
2022/05/26 10:53:31;;;;;;;7.50;1.90;;;19.00;61.20;;;;;;4853248;29;20522;-73
2022/05/26 10:56:21;;;;;;;9.97;1.40;;;19.10;60.80;;;;;;4834349;29;20609;-72
2022/05/26 10:58:51;;;;;;;9.43;1.93;;;18.80;60.30;;;;;;4815067;29;20196;-72
2022/05/26 11:01:40;;;;;;;8.57;2.30;;;18.60;61.60;;;;;;4827820;29;20107;-73
2022/05/26 11:04:44;;;;;;;5.70;1.50;;;18.90;62.10;;;;;;4832511;29;20042;-73
2022/05/26 11:07:29;;;;;;;10.27;2.10;;;19.10;61.00;;;;;;4858775;29;20045;-73
2022/05/26 11:09:58;;;;;;;6.50;1.55;;;19.10;61.20;;;;;;4818854;29;20050;-73
2022/05/26 11:12:51;;;;;;;9.27;2.03;;;19.20;60.70;;;;;;4816591;29;20614;-73
2022/05/26 11:18:33;;;;;;;6.90;1.63;;;19.20;61.30;;;;;;4851605;29;20081;-73
2022/05/26 11:21:00;;;;;;;7.03;1.73;;;19.10;59.80;;;;;;4843281;29;20283;-73
2022/05/26 11:23:29;;;;;;;6.60;1.40;;;19.10;61.60;;;;;;4806571;29;20073;-73
2022/05/26 11:26:00;;;;;;;6.87;1.77;;;19.20;60.50;;;;;;4849760;29;20058;-73
2022/05/26 11:28:41;;;;;;;7.97;2.20;;;19.40;61.00;;;;;;4800168;29;20043;-72
2022/05/26 11:37:23;;;;;;;6.37;1.47;;;19.70;59.20;;;;;;4849929;29;20065;-73
2022/05/26 11:39:54;;;;;;;;;;;19.30;60.00;;;;;;4834370;29;20135;-72
2022/05/26 11:42:30;;;;;;;9.90;1.70;;;19.20;60.50;;;;;;4852146;29;19974;-73
2022/05/26 11:45:08;;;;;;;6.93;1.67;;;19.20;60.80;;;;;;4841043;29;20801;-73
2022/05/26 11:47:54;;;;;;;7.47;1.73;;;19.10;60.10;;;;;;4810372;29;20766;-72
2022/05/26 11:50:42;;;;;;;6.27;1.90;;;19.00;59.70;;;;;;4821572;29;20147;-73
2022/05/26 11:53:32;;;;;;;6.77;1.30;;;18.90;61.40;;;;;;4842502;29;20050;-73
2022/05/26 11:56:21;;;;;;;8.07;1.40;;;18.80;59.40;;;;;;4821256;29;20055;-73
2022/05/26 11:59:20;;;;;;;5.80;1.50;;;18.90;59.70;;;;;;4811650;29;20069;-73
2022/05/26 12:01:53;;;;;;;6.73;1.50;;;19.20;59.70;;;;;;4823179;29;20046;-73
2022/05/26 12:04:30;;;;;;;9.87;1.60;;;19.40;59.80;;;;;;4824856;29;20073;-72
2022/05/26 12:07:14;;;;;;;6.87;1.53;;;19.20;61.10;;;;;;4794361;29;20107;-73
2022/05/26 12:09:51;;;;;;;8.27;1.87;;;19.30;61.10;;;;;;4846691;29;20076;-73
2022/05/26 12:12:16;;;;;;;8.20;1.50;;;19.20;60.60;;;;;;4843202;29;20134;-73
2022/05/26 12:14:54;;;;;;;8.77;2.63;;;19.00;59.20;;;;;;4815899;29;20560;-73
2022/05/26 12:17:26;;;;;;;6.07;1.50;;;18.60;60.50;;;;;;4817994;29;20081;-73
2022/05/26 12:19:52;;;;;;;5.60;1.17;;;18.40;61.10;;;;;;4818007;29;20149;-73
2022/05/26 12:22:31;;;;;;;6.87;1.50;;;18.60;62.10;;;;;;4849896;29;20363;-73
2022/05/26 12:25:05;;;;;;;7.00;1.20;;;18.90;61.10;;;;;;4848661;29;20030;-73
2022/05/26 12:27:55;;;;;;;7.35;1.67;;;18.90;59.50;;;;;;4825228;29;20827;-73
2022/05/26 12:30:35;;;;;;;6.83;1.80;;;19.00;58.90;;;;;;4842876;29;20500;-73
2022/05/26 12:33:19;;;;;;;8.57;1.60;;;18.90;60.20;;;;;;4836605;29;20099;-73
2022/05/26 12:36:07;;;;;;;6.20;1.40;;;19.00;59.90;;;;;;4849342;29;20065;-73
2022/05/26 12:38:44;;;;;;;5.67;1.20;;;19.00;59.10;;;;;;4829201;29;20453;-73
2022/05/26 12:41:38;;;;;;;5.13;1.40;;;19.10;58.70;;;;;;4832676;29;20149;-73
2022/05/26 12:44:35;;;;;;;8.13;1.47;;;19.20;59.60;;;;;;4844208;29;20059;-73
2022/05/26 12:47:34;;;;;;;8.47;1.70;;;19.00;60.20;;;;;;4847627;29;20058;-73
2022/05/26 12:50:20;;;;;;;6.17;1.30;;;19.10;58.60;;;;;;4825308;29;20042;-73
2022/05/26 12:52:55;;;;;;;8.40;1.93;;;19.00;58.50;;;;;;4844041;29;20122;-73
2022/05/26 12:55:35;;;;;;;7.35;1.65;;;18.70;59.40;;;;;;4811751;29;20497;-73
2022/05/26 12:58:22;;;;;;;6.83;1.57;;;18.60;59.20;;;;;;4819144;29;20034;-73
2022/05/26 13:00:57;;;;;;;8.90;1.93;;;18.70;59.90;;;;;;4832838;29;20107;-73
2022/05/26 13:03:34;;;;;;;7.47;1.52;;;18.60;60.20;;;;;;4849882;29;20328;-73
2022/05/26 13:06:07;;;;;;;6.50;1.17;;;18.70;60.00;;;;;;4849203;29;20166;-73
2022/05/26 13:09:03;;;;;;;6.00;1.03;;;18.70;60.10;;;;;;4850304;29;20295;-73
2022/05/26 13:11:33;;;;;;;7.68;1.40;;;18.80;58.80;;;;;;4830465;29;20037;-73
2022/05/26 13:14:07;;;;;;;6.73;1.27;;;18.60;58.10;;;;;;4817216;29;20117;-73
2022/05/26 13:16:36;;;;;;;7.30;1.40;;;18.40;59.70;;;;;;4813642;29;20639;-73
2022/05/26 13:19:15;;;;;;;8.67;1.90;;;18.30;58.90;;;;;;4826457;29;20052;-73
2022/05/26 13:22:05;;;;;;;11.17;2.03;;;18.00;60.10;;;;;;4817265;29;20307;-73
2022/05/26 13:24:32;;;;;;;8.27;1.57;;;18.30;60.60;;;;;;4847201;29;20291;-73
2022/05/26 13:27:01;;;;;;;9.87;2.43;;;18.30;60.40;;;;;;4799232;29;20403;-73
2022/05/26 13:29:30;;;;;;;7.73;2.27;;;18.50;60.80;;;;;;4831760;29;20637;-73
2022/05/26 13:34:45;;;;;;;;;;;18.90;60.30;;;;;;4863592;29;20306;-73
2022/05/26 13:37:16;;;;;;;12.13;2.23;;;18.90;60.00;;;;;;4819345;29;19925;-73
2022/05/26 13:39:42;;;;;;;9.70;1.57;;;19.10;59.20;;;;;;4830557;29;20815;-73
2022/05/26 13:42:09;;;;;;;6.53;1.60;;;19.10;58.90;;;;;;4817616;29;20416;-73
2022/05/26 13:44:41;;;;;;;12.47;1.90;;;19.00;60.30;;;;;;4814549;29;20050;-73
2022/05/26 13:47:11;;;;;;;6.47;1.40;;;19.00;60.30;;;;;;4831898;29;20291;-73
2022/05/26 13:49:39;;;;;;;5.47;1.20;;;18.90;60.50;;;;;;4817332;29;20057;-73
2022/05/26 13:52:26;;;;;;;8.43;1.87;;;18.90;59.20;;;;;;4834319;29;20076;-73
2022/05/26 13:54:57;;;;;;;10.33;2.20;;;19.00;59.70;;;;;;4822213;29;20055;-73
2022/05/26 13:57:42;;;;;;;7.30;1.67;;;19.10;59.50;;;;;;4837195;29;20042;-73